sensor_id;sensor_type;location;lat;lon;timestamp;temperature;humidity
74511;DHT22;62991;50.040;18.400;2023-01-01T00:00:13;13.80;58.50
74511;DHT22;62991;50.040;18.400;2023-01-01T00:03:14;13.80;58.40
74511;DHT22;62991;50.040;18.400;2023-01-01T00:06:14;13.80;58.40
74511;DHT22;62991;50.040;18.400;2023-01-01T00:09:15;13.70;58.40
74511;DHT22;62991;50.040;18.400;2023-01-01T00:12:34;13.70;58.40
74511;DHT22;62991;50.040;18.400;2023-01-01T00:15:35;13.70;58.30
74511;DHT22;62991;50.040;18.400;2023-01-01T00:18:36;13.70;58.30
74511;DHT22;62991;50.040;18.400;2023-01-01T00:21:36;13.70;58.30
74511;DHT22;62991;50.040;18.400;2023-01-01T00:24:37;13.70;58.30
74511;DHT22;62991;50.040;18.400;2023-01-01T00:27:38;13.60;58.20
74511;DHT22;62991;50.040;18.400;2023-01-01T00:30:39;13.60;58.20
74511;DHT22;62991;50.040;18.400;2023-01-01T00:33:40;13.60;58.20
74511;DHT22;62991;50.040;18.400;2023-01-01T00:36:40;13.60;58.20
74511;DHT22;62991;50.040;18.400;2023-01-01T00:39:41;13.50;58.30
74511;DHT22;62991;50.040;18.400;2023-01-01T00:42:42;13.50;58.30
74511;DHT22;62991;50.040;18.400;2023-01-01T00:45:42;13.50;58.40
74511;DHT22;62991;50.040;18.400;2023-01-01T00:48:47;13.50;58.40
74511;DHT22;62991;50.040;18.400;2023-01-01T00:51:47;13.50;58.40
74511;DHT22;62991;50.040;18.400;2023-01-01T00:54:48;13.50;58.30
74511;DHT22;62991;50.040;18.400;2023-01-01T00:57:49;13.50;58.30
74511;DHT22;62991;50.040;18.400;2023-01-01T01:00:50;13.50;58.40
74511;DHT22;62991;50.040;18.400;2023-01-01T01:03:51;13.50;58.30
74511;DHT22;62991;50.040;18.400;2023-01-01T01:06:52;13.50;58.40
74511;DHT22;62991;50.040;18.400;2023-01-01T01:09:52;13.50;58.40
74511;DHT22;62991;50.040;18.400;2023-01-01T01:12:54;13.50;58.40
74511;DHT22;62991;50.040;18.400;2023-01-01T01:15:54;13.50;58.40
74511;DHT22;62991;50.040;18.400;2023-01-01T01:18:58;13.50;58.30
74511;DHT22;62991;50.040;18.400;2023-01-01T01:21:59;13.50;58.40
74511;DHT22;62991;50.040;18.400;2023-01-01T01:25:00;13.60;58.40
74511;DHT22;62991;50.040;18.400;2023-01-01T01:28:01;13.50;58.30
74511;DHT22;62991;50.040;18.400;2023-01-01T01:31:01;13.60;58.40
74511;DHT22;62991;50.040;18.400;2023-01-01T01:34:02;13.60;58.40
74511;DHT22;62991;50.040;18.400;2023-01-01T01:37:03;13.60;58.40
74511;DHT22;62991;50.040;18.400;2023-01-01T01:40:04;13.60;58.40
74511;DHT22;62991;50.040;18.400;2023-01-01T01:46:32;13.60;58.30
74511;DHT22;62991;50.040;18.400;2023-01-01T01:49:34;13.60;58.30
74511;DHT22;62991;50.040;18.400;2023-01-01T01:52:36;13.60;58.30
74511;DHT22;62991;50.040;18.400;2023-01-01T01:55:43;13.60;58.30
74511;DHT22;62991;50.040;18.400;2023-01-01T01:58:44;13.50;58.30
74511;DHT22;62991;50.040;18.400;2023-01-01T02:01:45;13.50;58.30
74511;DHT22;62991;50.040;18.400;2023-01-01T02:04:46;13.50;58.30
74511;DHT22;62991;50.040;18.400;2023-01-01T02:07:48;13.40;58.40
74511;DHT22;62991;50.040;18.400;2023-01-01T02:10:49;13.40;58.40
74511;DHT22;62991;50.040;18.400;2023-01-01T02:13:50;13.40;58.40
74511;DHT22;62991;50.040;18.400;2023-01-01T02:16:58;13.40;58.40
74511;DHT22;62991;50.040;18.400;2023-01-01T02:29:45;13.30;58.50
74511;DHT22;62991;50.040;18.400;2023-01-01T02:32:57;13.20;58.50
74511;DHT22;62991;50.040;18.400;2023-01-01T02:36:02;13.20;58.60
74511;DHT22;62991;50.040;18.400;2023-01-01T02:39:06;13.20;58.60
74511;DHT22;62991;50.040;18.400;2023-01-01T02:42:07;13.10;58.60
74511;DHT22;62991;50.040;18.400;2023-01-01T02:45:08;13.10;58.70
74511;DHT22;62991;50.040;18.400;2023-01-01T02:52:00;13.00;58.80
74511;DHT22;62991;50.040;18.400;2023-01-01T03:11:08;13.00;59.00
74511;DHT22;62991;50.040;18.400;2023-01-01T03:14:30;12.90;59.00
74511;DHT22;62991;50.040;18.400;2023-01-01T03:17:40;12.90;59.00
74511;DHT22;62991;50.040;18.400;2023-01-01T03:20:48;12.90;59.00
74511;DHT22;62991;50.040;18.400;2023-01-01T03:23:50;13.00;59.00
74511;DHT22;62991;50.040;18.400;2023-01-01T03:26:57;13.00;59.00
74511;DHT22;62991;50.040;18.400;2023-01-01T03:30:01;13.00;59.00
74511;DHT22;62991;50.040;18.400;2023-01-01T03:33:07;13.00;59.00
74511;DHT22;62991;50.040;18.400;2023-01-01T03:36:27;13.00;58.90
74511;DHT22;62991;50.040;18.400;2023-01-01T03:39:35;13.10;58.80
74511;DHT22;62991;50.040;18.400;2023-01-01T03:42:38;13.10;58.70
74511;DHT22;62991;50.040;18.400;2023-01-01T03:45:42;13.20;58.70
74511;DHT22;62991;50.040;18.400;2023-01-01T03:48:44;13.20;58.50
74511;DHT22;62991;50.040;18.400;2023-01-01T03:55:37;13.30;58.40
74511;DHT22;62991;50.040;18.400;2023-01-01T03:58:46;13.30;58.40
74511;DHT22;62991;50.040;18.400;2023-01-01T04:01:52;13.30;58.30
74511;DHT22;62991;50.040;18.400;2023-01-01T04:04:55;13.30;58.20
74511;DHT22;62991;50.040;18.400;2023-01-01T04:08:00;13.40;58.10
74511;DHT22;62991;50.040;18.400;2023-01-01T04:11:06;13.40;58.10
74511;DHT22;62991;50.040;18.400;2023-01-01T04:14:39;13.50;58.00
74511;DHT22;62991;50.040;18.400;2023-01-01T04:17:40;13.50;57.90
74511;DHT22;62991;50.040;18.400;2023-01-01T04:20:40;13.60;57.80
74511;DHT22;62991;50.040;18.400;2023-01-01T04:23:41;13.60;57.70
74511;DHT22;62991;50.040;18.400;2023-01-01T04:26:42;13.60;57.60
74511;DHT22;62991;50.040;18.400;2023-01-01T04:29:42;13.70;57.50
74511;DHT22;62991;50.040;18.400;2023-01-01T04:32:43;13.70;57.50
74511;DHT22;62991;50.040;18.400;2023-01-01T04:35:44;13.80;57.40
74511;DHT22;62991;50.040;18.400;2023-01-01T04:38:45;13.80;57.30
74511;DHT22;62991;50.040;18.400;2023-01-01T04:41:46;13.80;57.30
74511;DHT22;62991;50.040;18.400;2023-01-01T04:44:46;13.80;57.30
74511;DHT22;62991;50.040;18.400;2023-01-01T04:47:47;13.80;57.30
74511;DHT22;62991;50.040;18.400;2023-01-01T04:50:55;13.80;57.10
74511;DHT22;62991;50.040;18.400;2023-01-01T04:53:58;13.90;57.00
74511;DHT22;62991;50.040;18.400;2023-01-01T04:56:58;13.80;57.00
74511;DHT22;62991;50.040;18.400;2023-01-01T04:59:59;13.80;56.90
74511;DHT22;62991;50.040;18.400;2023-01-01T05:03:00;13.80;57.00
74511;DHT22;62991;50.040;18.400;2023-01-01T05:09:01;13.80;57.10
74511;DHT22;62991;50.040;18.400;2023-01-01T05:12:03;13.80;57.00
74511;DHT22;62991;50.040;18.400;2023-01-01T05:15:04;13.80;57.00
74511;DHT22;62991;50.040;18.400;2023-01-01T05:18:05;13.70;57.10
74511;DHT22;62991;50.040;18.400;2023-01-01T05:21:08;13.70;57.00
74511;DHT22;62991;50.040;18.400;2023-01-01T05:24:10;13.70;57.10
74511;DHT22;62991;50.040;18.400;2023-01-01T05:27:11;13.60;57.10
74511;DHT22;62991;50.040;18.400;2023-01-01T05:30:11;13.60;57.10
74511;DHT22;62991;50.040;18.400;2023-01-01T05:33:12;13.60;57.00
74511;DHT22;62991;50.040;18.400;2023-01-01T05:36:25;13.50;57.10
74511;DHT22;62991;50.040;18.400;2023-01-01T05:39:26;13.50;57.20
74511;DHT22;62991;50.040;18.400;2023-01-01T05:42:26;13.50;57.20
74511;DHT22;62991;50.040;18.400;2023-01-01T05:45:27;13.50;57.20
74511;DHT22;62991;50.040;18.400;2023-01-01T05:48:28;13.40;57.20
74511;DHT22;62991;50.040;18.400;2023-01-01T05:51:29;13.40;57.20
74511;DHT22;62991;50.040;18.400;2023-01-01T05:54:30;13.40;57.20
74511;DHT22;62991;50.040;18.400;2023-01-01T05:57:31;13.30;57.30
74511;DHT22;62991;50.040;18.400;2023-01-01T06:00:31;13.30;57.30
74511;DHT22;62991;50.040;18.400;2023-01-01T06:03:32;13.30;57.30
74511;DHT22;62991;50.040;18.400;2023-01-01T06:06:33;13.20;57.30
74511;DHT22;62991;50.040;18.400;2023-01-01T06:09:33;13.20;57.40
74511;DHT22;62991;50.040;18.400;2023-01-01T06:12:34;13.10;57.40
74511;DHT22;62991;50.040;18.400;2023-01-01T06:15:35;13.10;57.40
74511;DHT22;62991;50.040;18.400;2023-01-01T06:18:35;13.00;57.50
74511;DHT22;62991;50.040;18.400;2023-01-01T06:21:36;13.00;57.60
74511;DHT22;62991;50.040;18.400;2023-01-01T06:24:37;12.90;57.60
74511;DHT22;62991;50.040;18.400;2023-01-01T06:27:37;12.90;57.70
74511;DHT22;62991;50.040;18.400;2023-01-01T06:30:38;12.80;57.80
74511;DHT22;62991;50.040;18.400;2023-01-01T06:33:39;12.80;57.90
74511;DHT22;62991;50.040;18.400;2023-01-01T06:36:40;12.80;58.00
74511;DHT22;62991;50.040;18.400;2023-01-01T06:39:41;12.80;58.00
74511;DHT22;62991;50.040;18.400;2023-01-01T06:42:41;12.80;58.10
74511;DHT22;62991;50.040;18.400;2023-01-01T06:45:42;12.80;58.10
74511;DHT22;62991;50.040;18.400;2023-01-01T06:48:44;12.70;58.20
74511;DHT22;62991;50.040;18.400;2023-01-01T06:51:45;12.70;58.20
74511;DHT22;62991;50.040;18.400;2023-01-01T06:54:45;12.70;58.30
74511;DHT22;62991;50.040;18.400;2023-01-01T06:57:46;12.70;58.30
74511;DHT22;62991;50.040;18.400;2023-01-01T07:00:50;12.70;58.30
74511;DHT22;62991;50.040;18.400;2023-01-01T07:04:03;12.80;58.40
74511;DHT22;62991;50.040;18.400;2023-01-01T07:07:04;12.80;58.30
74511;DHT22;62991;50.040;18.400;2023-01-01T07:10:05;12.80;58.30
74511;DHT22;62991;50.040;18.400;2023-01-01T07:13:06;12.80;58.40
74511;DHT22;62991;50.040;18.400;2023-01-01T07:16:06;12.80;58.30
74511;DHT22;62991;50.040;18.400;2023-01-01T07:19:07;12.80;58.30
74511;DHT22;62991;50.040;18.400;2023-01-01T07:22:08;12.70;58.40
74511;DHT22;62991;50.040;18.400;2023-01-01T07:25:13;12.80;58.50
74511;DHT22;62991;50.040;18.400;2023-01-01T07:28:14;12.80;58.50
74511;DHT22;62991;50.040;18.400;2023-01-01T07:31:15;12.80;58.50
74511;DHT22;62991;50.040;18.400;2023-01-01T07:34:17;12.80;58.50
74511;DHT22;62991;50.040;18.400;2023-01-01T07:37:19;12.70;58.50
74511;DHT22;62991;50.040;18.400;2023-01-01T07:40:20;12.70;58.60
74511;DHT22;62991;50.040;18.400;2023-01-01T07:43:21;12.70;58.60
74511;DHT22;62991;50.040;18.400;2023-01-01T07:46:21;12.70;58.60
74511;DHT22;62991;50.040;18.400;2023-01-01T07:49:22;12.70;58.60
74511;DHT22;62991;50.040;18.400;2023-01-01T07:52:23;12.70;58.60
74511;DHT22;62991;50.040;18.400;2023-01-01T07:55:24;12.80;58.60
74511;DHT22;62991;50.040;18.400;2023-01-01T07:58:24;12.70;58.60
74511;DHT22;62991;50.040;18.400;2023-01-01T08:01:25;12.70;58.70
74511;DHT22;62991;50.040;18.400;2023-01-01T08:04:26;12.70;58.70
74511;DHT22;62991;50.040;18.400;2023-01-01T08:07:26;12.80;58.70
74511;DHT22;62991;50.040;18.400;2023-01-01T08:10:27;12.80;58.70
74511;DHT22;62991;50.040;18.400;2023-01-01T08:13:28;12.90;58.70
74511;DHT22;62991;50.040;18.400;2023-01-01T08:16:28;12.90;58.60
74511;DHT22;62991;50.040;18.400;2023-01-01T08:19:29;12.90;58.60
74511;DHT22;62991;50.040;18.400;2023-01-01T08:22:30;12.90;58.60
74511;DHT22;62991;50.040;18.400;2023-01-01T08:25:30;12.90;58.60
74511;DHT22;62991;50.040;18.400;2023-01-01T08:28:31;12.90;58.60
74511;DHT22;62991;50.040;18.400;2023-01-01T08:31:32;12.90;58.60
74511;DHT22;62991;50.040;18.400;2023-01-01T08:34:33;13.00;58.50
74511;DHT22;62991;50.040;18.400;2023-01-01T08:37:33;13.00;58.60
74511;DHT22;62991;50.040;18.400;2023-01-01T08:40:34;13.00;58.60
74511;DHT22;62991;50.040;18.400;2023-01-01T08:43:36;13.00;58.50
74511;DHT22;62991;50.040;18.400;2023-01-01T08:46:36;13.00;58.60
74511;DHT22;62991;50.040;18.400;2023-01-01T08:49:37;13.00;58.60
74511;DHT22;62991;50.040;18.400;2023-01-01T08:52:37;13.00;58.60
74511;DHT22;62991;50.040;18.400;2023-01-01T08:55:38;13.00;58.50
74511;DHT22;62991;50.040;18.400;2023-01-01T08:58:39;13.00;58.60
74511;DHT22;62991;50.040;18.400;2023-01-01T09:01:40;13.10;58.50
74511;DHT22;62991;50.040;18.400;2023-01-01T09:04:40;13.10;58.50
74511;DHT22;62991;50.040;18.400;2023-01-01T09:07:41;13.20;58.40
74511;DHT22;62991;50.040;18.400;2023-01-01T09:10:42;13.20;58.40
74511;DHT22;62991;50.040;18.400;2023-01-01T09:13:43;13.20;58.40
74511;DHT22;62991;50.040;18.400;2023-01-01T09:16:43;13.30;58.30
74511;DHT22;62991;50.040;18.400;2023-01-01T09:19:44;13.30;58.30
74511;DHT22;62991;50.040;18.400;2023-01-01T09:22:45;13.30;58.20
74511;DHT22;62991;50.040;18.400;2023-01-01T09:25:45;13.30;58.20
74511;DHT22;62991;50.040;18.400;2023-01-01T09:28:46;13.40;58.20
74511;DHT22;62991;50.040;18.400;2023-01-01T09:31:47;13.40;58.20
74511;DHT22;62991;50.040;18.400;2023-01-01T09:34:48;13.40;58.20
74511;DHT22;62991;50.040;18.400;2023-01-01T09:37:50;13.50;58.20
74511;DHT22;62991;50.040;18.400;2023-01-01T09:41:01;13.50;58.10
74511;DHT22;62991;50.040;18.400;2023-01-01T09:47:42;13.60;57.90
74511;DHT22;62991;50.040;18.400;2023-01-01T09:50:45;13.60;57.90
74511;DHT22;62991;50.040;18.400;2023-01-01T09:54:11;13.70;57.90
74511;DHT22;62991;50.040;18.400;2023-01-01T09:57:14;13.70;57.80
74511;DHT22;62991;50.040;18.400;2023-01-01T10:00:17;13.80;57.80
74511;DHT22;62991;50.040;18.400;2023-01-01T10:03:59;13.80;57.70
74511;DHT22;62991;50.040;18.400;2023-01-01T10:07:27;13.90;57.70
74511;DHT22;62991;50.040;18.400;2023-01-01T10:10:38;13.90;57.60
74511;DHT22;62991;50.040;18.400;2023-01-01T10:13:44;14.00;57.50
74511;DHT22;62991;50.040;18.400;2023-01-01T10:16:48;14.10;57.30
74511;DHT22;62991;50.040;18.400;2023-01-01T10:19:52;14.10;57.30
74511;DHT22;62991;50.040;18.400;2023-01-01T10:23:01;14.20;57.30
74511;DHT22;62991;50.040;18.400;2023-01-01T10:26:08;14.30;57.10
74511;DHT22;62991;50.040;18.400;2023-01-01T10:29:23;14.40;57.00
74511;DHT22;62991;50.040;18.400;2023-01-01T10:32:34;14.50;57.00
74511;DHT22;62991;50.040;18.400;2023-01-01T10:35:43;14.60;56.90
74511;DHT22;62991;50.040;18.400;2023-01-01T10:38:47;14.70;56.90
74511;DHT22;62991;50.040;18.400;2023-01-01T10:41:48;14.80;56.70
74511;DHT22;62991;50.040;18.400;2023-01-01T10:44:51;14.90;56.50
74511;DHT22;62991;50.040;18.400;2023-01-01T10:48:28;15.10;56.40
74511;DHT22;62991;50.040;18.400;2023-01-01T10:51:33;15.20;56.10
74511;DHT22;62991;50.040;18.400;2023-01-01T10:54:37;15.30;55.90
74511;DHT22;62991;50.040;18.400;2023-01-01T10:57:39;15.30;55.70
74511;DHT22;62991;50.040;18.400;2023-01-01T11:00:39;15.40;55.50
74511;DHT22;62991;50.040;18.400;2023-01-01T11:06:53;15.50;55.30
74511;DHT22;62991;50.040;18.400;2023-01-01T11:10:00;15.60;55.30
74511;DHT22;62991;50.040;18.400;2023-01-01T11:13:02;15.60;55.20
74511;DHT22;62991;50.040;18.400;2023-01-01T11:16:09;15.70;55.00
74511;DHT22;62991;50.040;18.400;2023-01-01T11:19:20;15.80;54.90
74511;DHT22;62991;50.040;18.400;2023-01-01T11:22:44;16.00;54.70
74511;DHT22;62991;50.040;18.400;2023-01-01T11:26:00;16.20;54.40
74511;DHT22;62991;50.040;18.400;2023-01-01T11:29:23;16.30;54.00
74511;DHT22;62991;50.040;18.400;2023-01-01T11:32:33;16.50;53.80
74511;DHT22;62991;50.040;18.400;2023-01-01T11:35:47;16.70;53.80
74511;DHT22;62991;50.040;18.400;2023-01-01T11:39:19;16.90;53.40
74511;DHT22;62991;50.040;18.400;2023-01-01T11:42:27;17.20;53.20
74511;DHT22;62991;50.040;18.400;2023-01-01T11:45:34;17.50;52.80
74511;DHT22;62991;50.040;18.400;2023-01-01T11:48:41;17.90;52.50
74511;DHT22;62991;50.040;18.400;2023-01-01T11:51:43;18.20;52.00
74511;DHT22;62991;50.040;18.400;2023-01-01T11:54:45;18.50;51.70
74511;DHT22;62991;50.040;18.400;2023-01-01T11:58:20;18.90;51.10
74511;DHT22;62991;50.040;18.400;2023-01-01T12:01:44;19.20;50.90
74511;DHT22;62991;50.040;18.400;2023-01-01T12:04:56;19.60;50.30
74511;DHT22;62991;50.040;18.400;2023-01-01T12:08:02;19.80;49.90
74511;DHT22;62991;50.040;18.400;2023-01-01T12:11:30;20.10;49.70
74511;DHT22;62991;50.040;18.400;2023-01-01T12:21:10;20.70;48.20
74511;DHT22;62991;50.040;18.400;2023-01-01T12:24:13;20.70;47.80
74511;DHT22;62991;50.040;18.400;2023-01-01T12:50:40;19.60;47.70
74511;DHT22;62991;50.040;18.400;2023-01-01T12:57:31;19.20;48.30
74511;DHT22;62991;50.040;18.400;2023-01-01T13:00:36;19.00;48.40
74511;DHT22;62991;50.040;18.400;2023-01-01T13:06:56;18.80;48.50
74511;DHT22;62991;50.040;18.400;2023-01-01T13:10:29;18.60;48.50
74511;DHT22;62991;50.040;18.400;2023-01-01T13:13:28;18.30;48.70
74511;DHT22;62991;50.040;18.400;2023-01-01T13:16:40;18.10;49.10
74511;DHT22;62991;50.040;18.400;2023-01-01T13:19:41;18.10;49.20
74511;DHT22;62991;50.040;18.400;2023-01-01T13:22:42;18.00;49.30
74511;DHT22;62991;50.040;18.400;2023-01-01T13:25:43;17.80;49.50
74511;DHT22;62991;50.040;18.400;2023-01-01T13:34:59;17.40;49.90
74511;DHT22;62991;50.040;18.400;2023-01-01T13:38:00;17.20;50.20
74511;DHT22;62991;50.040;18.400;2023-01-01T13:41:01;17.10;50.30
74511;DHT22;62991;50.040;18.400;2023-01-01T13:47:12;16.70;50.80
74511;DHT22;62991;50.040;18.400;2023-01-01T13:50:54;16.60;51.00
74511;DHT22;62991;50.040;18.400;2023-01-01T14:05:16;16.10;51.90
74511;DHT22;62991;50.040;18.400;2023-01-01T14:08:32;16.00;52.00
74511;DHT22;62991;50.040;18.400;2023-01-01T14:11:33;16.00;52.20
74511;DHT22;62991;50.040;18.400;2023-01-01T14:14:33;16.00;52.30
74511;DHT22;62991;50.040;18.400;2023-01-01T14:17:35;16.00;52.40
74511;DHT22;62991;50.040;18.400;2023-01-01T14:20:42;16.10;52.50
74511;DHT22;62991;50.040;18.400;2023-01-01T14:23:45;16.10;52.50
74511;DHT22;62991;50.040;18.400;2023-01-01T14:26:47;16.20;52.50
74511;DHT22;62991;50.040;18.400;2023-01-01T14:29:49;16.20;52.50
74511;DHT22;62991;50.040;18.400;2023-01-01T14:32:58;16.30;52.40
74511;DHT22;62991;50.040;18.400;2023-01-01T14:36:01;16.30;52.40
74511;DHT22;62991;50.040;18.400;2023-01-01T14:39:02;16.20;52.50
74511;DHT22;62991;50.040;18.400;2023-01-01T14:42:08;16.20;52.60
74511;DHT22;62991;50.040;18.400;2023-01-01T14:45:16;16.10;52.70
74511;DHT22;62991;50.040;18.400;2023-01-01T14:48:18;16.10;52.80
74511;DHT22;62991;50.040;18.400;2023-01-01T14:51:22;16.00;52.90
74511;DHT22;62991;50.040;18.400;2023-01-01T14:54:30;15.90;53.00
74511;DHT22;62991;50.040;18.400;2023-01-01T14:57:34;15.80;53.10
74511;DHT22;62991;50.040;18.400;2023-01-01T15:00:35;15.70;53.30
74511;DHT22;62991;50.040;18.400;2023-01-01T15:03:36;15.60;53.40
74511;DHT22;62991;50.040;18.400;2023-01-01T15:06:39;15.50;53.50
74511;DHT22;62991;50.040;18.400;2023-01-01T15:09:40;15.40;53.70
74511;DHT22;62991;50.040;18.400;2023-01-01T15:12:41;15.30;53.80
74511;DHT22;62991;50.040;18.400;2023-01-01T15:15:44;15.30;54.00
74511;DHT22;62991;50.040;18.400;2023-01-01T15:18:46;15.20;54.10
74511;DHT22;62991;50.040;18.400;2023-01-01T15:21:49;15.10;54.20
74511;DHT22;62991;50.040;18.400;2023-01-01T15:24:49;15.10;54.40
74511;DHT22;62991;50.040;18.400;2023-01-01T15:27:54;15.00;54.40
74511;DHT22;62991;50.040;18.400;2023-01-01T15:30:56;15.00;54.60
74511;DHT22;62991;50.040;18.400;2023-01-01T15:33:57;14.90;54.70
74511;DHT22;62991;50.040;18.400;2023-01-01T15:37:18;14.90;54.80
74511;DHT22;62991;50.040;18.400;2023-01-01T15:43:22;14.70;55.20
74511;DHT22;62991;50.040;18.400;2023-01-01T15:46:23;14.60;55.30
74511;DHT22;62991;50.040;18.400;2023-01-01T15:49:29;14.50;55.50
74511;DHT22;62991;50.040;18.400;2023-01-01T15:52:30;14.40;55.60
74511;DHT22;62991;50.040;18.400;2023-01-01T15:55:33;14.40;55.70
74511;DHT22;62991;50.040;18.400;2023-01-01T15:58:38;14.30;55.90
74511;DHT22;62991;50.040;18.400;2023-01-01T16:01:41;14.30;55.90
74511;DHT22;62991;50.040;18.400;2023-01-01T16:04:49;14.30;56.00
74511;DHT22;62991;50.040;18.400;2023-01-01T16:08:01;14.20;56.10
74511;DHT22;62991;50.040;18.400;2023-01-01T16:11:02;14.20;56.10
74511;DHT22;62991;50.040;18.400;2023-01-01T16:14:03;14.20;56.20
74511;DHT22;62991;50.040;18.400;2023-01-01T16:17:04;14.10;56.20
74511;DHT22;62991;50.040;18.400;2023-01-01T16:20:05;14.10;56.40
74511;DHT22;62991;50.040;18.400;2023-01-01T16:23:08;14.00;56.50
74511;DHT22;62991;50.040;18.400;2023-01-01T16:26:09;14.00;56.70
74511;DHT22;62991;50.040;18.400;2023-01-01T16:29:10;13.90;56.90
74511;DHT22;62991;50.040;18.400;2023-01-01T16:32:16;13.80;57.00
74511;DHT22;62991;50.040;18.400;2023-01-01T16:35:17;13.80;57.10
74511;DHT22;62991;50.040;18.400;2023-01-01T16:38:18;13.70;57.10
74511;DHT22;62991;50.040;18.400;2023-01-01T16:41:18;13.70;57.20
74511;DHT22;62991;50.040;18.400;2023-01-01T16:44:19;13.70;57.30
74511;DHT22;62991;50.040;18.400;2023-01-01T16:47:20;13.60;57.50
74511;DHT22;62991;50.040;18.400;2023-01-01T16:50:22;13.50;57.70
74511;DHT22;62991;50.040;18.400;2023-01-01T16:53:23;13.40;57.90
74511;DHT22;62991;50.040;18.400;2023-01-01T16:56:23;13.40;58.00
74511;DHT22;62991;50.040;18.400;2023-01-01T16:59:24;13.30;58.20
74511;DHT22;62991;50.040;18.400;2023-01-01T17:02:26;13.20;58.40
74511;DHT22;62991;50.040;18.400;2023-01-01T17:05:27;13.10;58.60
74511;DHT22;62991;50.040;18.400;2023-01-01T17:08:28;13.10;58.70
74511;DHT22;62991;50.040;18.400;2023-01-01T17:11:29;13.00;58.80
74511;DHT22;62991;50.040;18.400;2023-01-01T17:14:29;13.00;58.90
74511;DHT22;62991;50.040;18.400;2023-01-01T17:17:30;13.00;58.90
74511;DHT22;62991;50.040;18.400;2023-01-01T17:20:33;13.00;59.10
74511;DHT22;62991;50.040;18.400;2023-01-01T17:23:38;13.00;59.00
74511;DHT22;62991;50.040;18.400;2023-01-01T17:26:40;13.00;59.10
74511;DHT22;62991;50.040;18.400;2023-01-01T17:29:41;13.00;59.00
74511;DHT22;62991;50.040;18.400;2023-01-01T17:32:42;13.00;59.10
74511;DHT22;62991;50.040;18.400;2023-01-01T17:35:43;13.00;59.00
74511;DHT22;62991;50.040;18.400;2023-01-01T17:38:43;13.00;59.00
74511;DHT22;62991;50.040;18.400;2023-01-01T17:41:44;13.10;59.00
74511;DHT22;62991;50.040;18.400;2023-01-01T17:44:45;13.10;59.00
74511;DHT22;62991;50.040;18.400;2023-01-01T17:47:46;13.10;59.00
74511;DHT22;62991;50.040;18.400;2023-01-01T17:50:46;13.10;59.00
74511;DHT22;62991;50.040;18.400;2023-01-01T17:53:47;13.10;59.00
74511;DHT22;62991;50.040;18.400;2023-01-01T17:56:48;13.10;59.00
74511;DHT22;62991;50.040;18.400;2023-01-01T17:59:49;13.10;59.10
74511;DHT22;62991;50.040;18.400;2023-01-01T18:02:49;13.10;59.10
74511;DHT22;62991;50.040;18.400;2023-01-01T18:05:54;13.10;59.10
74511;DHT22;62991;50.040;18.400;2023-01-01T18:08:57;13.10;59.10
74511;DHT22;62991;50.040;18.400;2023-01-01T18:11:58;13.10;59.10
74511;DHT22;62991;50.040;18.400;2023-01-01T18:14:59;13.10;59.20
74511;DHT22;62991;50.040;18.400;2023-01-01T18:17:59;13.10;59.10
74511;DHT22;62991;50.040;18.400;2023-01-01T18:21:07;13.10;59.10
74511;DHT22;62991;50.040;18.400;2023-01-01T18:24:14;13.10;59.10
74511;DHT22;62991;50.040;18.400;2023-01-01T18:27:14;13.10;59.10
74511;DHT22;62991;50.040;18.400;2023-01-01T18:30:15;13.10;59.10
74511;DHT22;62991;50.040;18.400;2023-01-01T18:33:16;13.10;59.10
74511;DHT22;62991;50.040;18.400;2023-01-01T18:36:19;13.10;59.20
74511;DHT22;62991;50.040;18.400;2023-01-01T18:39:29;13.10;59.20
74511;DHT22;62991;50.040;18.400;2023-01-01T18:42:38;13.00;59.20
74511;DHT22;62991;50.040;18.400;2023-01-01T18:45:41;13.00;59.20
74511;DHT22;62991;50.040;18.400;2023-01-01T18:48:42;13.00;59.20
74511;DHT22;62991;50.040;18.400;2023-01-01T18:51:42;13.00;59.20
74511;DHT22;62991;50.040;18.400;2023-01-01T18:54:44;13.00;59.30
74511;DHT22;62991;50.040;18.400;2023-01-01T18:57:48;13.00;59.30
74511;DHT22;62991;50.040;18.400;2023-01-01T19:00:52;12.90;59.30
74511;DHT22;62991;50.040;18.400;2023-01-01T19:03:59;12.90;59.30
74511;DHT22;62991;50.040;18.400;2023-01-01T19:07:01;12.90;59.30
74511;DHT22;62991;50.040;18.400;2023-01-01T19:10:11;12.90;59.30
74511;DHT22;62991;50.040;18.400;2023-01-01T19:16:27;12.90;59.30
74511;DHT22;62991;50.040;18.400;2023-01-01T19:19:33;12.90;59.30
74511;DHT22;62991;50.040;18.400;2023-01-01T19:22:37;12.90;59.30
74511;DHT22;62991;50.040;18.400;2023-01-01T19:25:39;12.90;59.30
74511;DHT22;62991;50.040;18.400;2023-01-01T19:28:40;12.90;59.30
74511;DHT22;62991;50.040;18.400;2023-01-01T19:31:44;12.90;59.40
74511;DHT22;62991;50.040;18.400;2023-01-01T19:34:45;12.90;59.30
74511;DHT22;62991;50.040;18.400;2023-01-01T19:37:46;12.90;59.30
74511;DHT22;62991;50.040;18.400;2023-01-01T19:40:46;12.90;59.40
74511;DHT22;62991;50.040;18.400;2023-01-01T19:43:47;12.90;59.40
74511;DHT22;62991;50.040;18.400;2023-01-01T19:46:48;12.90;59.40
74511;DHT22;62991;50.040;18.400;2023-01-01T19:49:49;12.90;59.40
74511;DHT22;62991;50.040;18.400;2023-01-01T19:52:49;12.90;59.40
74511;DHT22;62991;50.040;18.400;2023-01-01T19:55:50;12.90;59.40
74511;DHT22;62991;50.040;18.400;2023-01-01T19:58:50;12.90;59.40
74511;DHT22;62991;50.040;18.400;2023-01-01T20:01:51;12.90;59.40
74511;DHT22;62991;50.040;18.400;2023-01-01T20:04:52;12.90;59.40
74511;DHT22;62991;50.040;18.400;2023-01-01T20:07:52;12.90;59.40
74511;DHT22;62991;50.040;18.400;2023-01-01T20:10:53;12.90;59.40
74511;DHT22;62991;50.040;18.400;2023-01-01T20:13:54;12.80;59.50
74511;DHT22;62991;50.040;18.400;2023-01-01T20:16:55;12.80;59.60
74511;DHT22;62991;50.040;18.400;2023-01-01T20:19:56;12.80;59.50
74511;DHT22;62991;50.040;18.400;2023-01-01T20:22:57;12.80;59.60
74511;DHT22;62991;50.040;18.400;2023-01-01T20:25:58;12.80;59.60
74511;DHT22;62991;50.040;18.400;2023-01-01T20:28:59;12.70;59.50
74511;DHT22;62991;50.040;18.400;2023-01-01T20:32:18;12.80;59.60
74511;DHT22;62991;50.040;18.400;2023-01-01T20:35:20;12.70;59.50
74511;DHT22;62991;50.040;18.400;2023-01-01T20:38:41;12.70;59.60
74511;DHT22;62991;50.040;18.400;2023-01-01T20:41:41;12.70;59.60
74511;DHT22;62991;50.040;18.400;2023-01-01T20:44:42;12.70;59.60
74511;DHT22;62991;50.040;18.400;2023-01-01T20:47:43;12.70;59.60
74511;DHT22;62991;50.040;18.400;2023-01-01T20:50:44;12.70;59.70